PST: 20:22 MST: 21:22 CST: 22:22 EST: 23:22 LDN: 04:22 UTC: 03:22
User Agent: CCBot/2.0 (https://commoncrawl.org/faq/)
IP Address: 3.239.129.91
Hostname: ec2-3-239-129-91.compute-1.amazonaws.com

METAR:
KBFI 210253Z VRB05KT 10SM CLR 15/06 A3018 RMK AO2 SLP219 T01500061 55007
KBFI 210153Z AUTO 28005KT 10SM SCT050 16/06 A3018 RMK AO2 SLP218 T01560061
KBFI 210053Z VRB05KT 10SM SCT060 16/06 A3019 RMK AO2 SLP221 T01610061
KBFI 202353Z 32005KT 10SM FEW040 16/06 A3020 RMK AO2 SLP226 T01610061 10161 20106 58018

TAF:
KBFI 210234Z 2103/2124 29007KT P6SM SCT050
FM 210600 VRB03KT P6SM SCT060
FM 211200 05005KT P6SM FEW040 SCT100
FM 212100 33006KT P6SM SKC

KBFI 202330Z 2100/2124 33007KT P6SM BKN040
FM 210400 VRB03KT P6SM SCT060
FM 211200 05005KT P6SM FEW040 SCT100
FM 212100 33006KT P6SM SKC

KBFI 201735Z 2018/2118 VRB03KT P6SM FEW015 BKN035 BKN050
FM 202100 31005KT P6SM BKN060 BKN100
FM 210200 00000KT P6SM SKC
FM 211200 33001KT P6SM FEW040 SCT100

KBFI 201139Z 2012/2112 15004KT P6SM SCT050 SCT100
FM 201800 25003KT P6SM BKN060 BKN100
FM 202100 31005KT P6SM BKN100
FM 210800 00000KT P6SM SKC

KBFI 200528Z 2006/2106 VRB03KT P6SM SCT050 BKN250
FM 201800 25003KT P6SM BKN060 BKN250
FM 202100 31005KT P6SM BKN250

KBFI 200236Z 2003/2024 31010KT P6SM SCT070
FM 200600 VRB03KT P6SM SCT050 BKN250
FM 201800 25003KT P6SM BKN060 BKN250
FM 202100 31005KT P6SM BKN250

KBFI 192332Z 2000/2024 32007KT P6SM BKN050
FM 200600 VRB03KT P6SM SCT050 BKN100
FM 201800 25003KT P6SM BKN060 BKN250